Time;durP1;ratioP1;P1;durP2;ratioP2;P2;SDS_P1;SDS_P2;PMS_P1;PMS_P2;Temp;Humidity;BMP_temperature;BMP_pressure;BME280_temperature;BME280_humidity;BME280_pressure;Samples;Min_cycle;Max_cycle;Signal;HPM_P1;HPM_P2
2023/03/21 00:01:29;;;;;;;39.08;25.10;;;10.20;99.90;;;;;;4985320;28;20042;-80
2023/03/21 00:03:55;;;;;;;30.23;21.10;;;10.20;99.90;;;;;;4939871;28;20041;-80
2023/03/21 00:06:21;;;;;;;31.08;22.05;;;10.20;99.90;;;;;;4970167;28;20046;-80
2023/03/21 00:08:48;;;;;;;30.58;22.33;;;10.20;99.90;;;;;;4966582;28;20038;-80
2023/03/21 00:11:15;;;;;;;31.10;21.33;;;10.20;99.90;;;;;;4989550;28;20037;-80
2023/03/21 00:13:42;;;;;;;36.28;24.27;;;10.10;99.90;;;;;;4976816;28;20041;-79
2023/03/21 00:16:14;;;;;;;29.40;21.52;;;10.20;99.90;;;;;;4976284;28;20485;-77
2023/03/21 00:18:51;;;;;;;31.85;22.65;;;10.20;99.90;;;;;;4969919;28;20052;-81
2023/03/21 00:21:19;;;;;;;29.58;22.98;;;10.10;99.90;;;;;;4962974;28;20045;-77
2023/03/21 00:23:46;;;;;;;32.58;22.60;;;10.10;99.90;;;;;;4970320;28;20048;-77
2023/03/21 00:26:13;;;;;;;35.85;23.88;;;10.10;99.90;;;;;;4969269;28;20041;-79
2023/03/21 00:28:41;;;;;;;40.00;26.75;;;10.10;99.90;;;;;;4968963;28;20033;-81
2023/03/21 00:31:08;;;;;;;37.38;26.42;;;10.10;99.90;;;;;;4970421;28;20740;-79
2023/03/21 00:33:37;;;;;;;28.17;22.92;;;10.10;99.90;;;;;;4961148;28;20481;-77
2023/03/21 00:36:05;;;;;;;37.13;27.15;;;10.10;99.90;;;;;;4968577;28;20045;-79
2023/03/21 00:38:34;;;;;;;35.67;27.80;;;10.10;99.90;;;;;;4983229;28;20034;-80
2023/03/21 00:41:06;;;;;;;40.53;27.55;;;10.00;99.90;;;;;;4959420;28;20042;-78
2023/03/21 00:43:32;;;;;;;35.75;27.90;;;10.00;99.90;;;;;;4966359;28;20046;-76
2023/03/21 00:46:01;;;;;;;35.83;27.38;;;10.00;99.90;;;;;;4967637;28;22304;-77
2023/03/21 00:48:28;;;;;;;42.10;29.48;;;10.00;99.90;;;;;;4973895;28;20050;-79
2023/03/21 00:50:58;;;;;;;38.00;27.75;;;10.00;99.90;;;;;;4951805;28;20061;-77
2023/03/21 00:53:25;;;;;;;44.90;30.90;;;10.00;99.90;;;;;;4950539;28;20046;-77
2023/03/21 00:55:51;;;;;;;41.92;29.25;;;10.00;99.90;;;;;;4968344;28;20041;-78
2023/03/21 00:58:17;;;;;;;36.17;26.80;;;10.00;99.90;;;;;;4968598;28;20069;-80
2023/03/21 01:00:47;;;;;;;39.55;27.45;;;10.00;99.90;;;;;;4929981;28;20037;-77
2023/03/21 01:03:15;;;;;;;31.30;23.92;;;10.00;99.90;;;;;;4969429;28;20030;-79
2023/03/21 01:06:03;;;;;;;35.70;27.75;;;10.00;99.90;;;;;;4978714;28;20060;-78
2023/03/21 01:08:41;;;;;;;43.85;30.58;;;10.00;99.90;;;;;;4960676;28;20057;-78
2023/03/21 01:11:12;;;;;;;33.97;26.00;;;10.00;99.90;;;;;;4976766;28;20050;-79
2023/03/21 01:13:39;;;;;;;35.95;26.90;;;10.00;99.90;;;;;;4967500;28;20050;-80
2023/03/21 01:16:07;;;;;;;35.05;26.00;;;10.00;99.90;;;;;;4985910;28;20049;-79
2023/03/21 01:18:35;;;;;;;32.83;23.98;;;10.00;99.90;;;;;;4967166;28;20041;-80
2023/03/21 01:21:06;;;;;;;34.22;25.00;;;10.00;99.90;;;;;;4958777;28;20049;-79
2023/03/21 01:23:33;;;;;;;29.55;24.38;;;10.00;99.90;;;;;;4974590;28;20046;-77
2023/03/21 01:25:59;;;;;;;33.95;25.38;;;10.00;99.90;;;;;;4992256;28;20029;-79
2023/03/21 01:28:28;;;;;;;33.72;25.00;;;10.00;99.90;;;;;;4971422;28;20044;-81
2023/03/21 01:30:54;;;;;;;29.65;21.70;;;10.00;99.90;;;;;;4958985;28;20054;-78
2023/03/21 01:33:21;;;;;;;28.45;22.38;;;10.00;99.90;;;;;;4966422;28;20049;-77
2023/03/21 01:35:48;;;;;;;35.33;25.65;;;10.00;99.90;;;;;;4953495;28;20811;-81
2023/03/21 01:38:14;;;;;;;31.52;25.60;;;10.00;99.90;;;;;;4950243;28;20821;-80
2023/03/21 01:40:45;;;;;;;31.55;22.88;;;10.00;99.90;;;;;;4949867;28;20041;-80
2023/03/21 01:43:27;;;;;;;42.55;29.15;;;10.00;99.90;;;;;;4976149;28;20045;-79
2023/03/21 01:46:11;;;;;;;38.92;26.85;;;10.00;99.90;;;;;;4970786;28;20050;-80
2023/03/21 01:49:02;;;;;;;37.22;25.92;;;10.00;99.90;;;;;;4978993;28;21717;-77
2023/03/21 01:51:32;;;;;;;32.17;22.27;;;10.00;99.90;;;;;;4961978;28;20049;-80
2023/03/21 01:54:00;;;;;;;28.80;21.42;;;10.00;99.90;;;;;;4963748;28;20045;-79
2023/03/21 01:56:35;;;;;;;32.90;25.27;;;9.90;99.90;;;;;;4984183;28;20053;-77
2023/03/21 01:59:16;;;;;;;32.40;23.15;;;9.90;99.90;;;;;;4958494;28;20234;-81
2023/03/21 02:01:55;;;;;;;28.83;21.70;;;9.90;99.90;;;;;;4992133;28;21354;-77
2023/03/21 02:04:27;;;;;;;30.70;23.13;;;9.90;99.90;;;;;;4966743;28;20081;-81
2023/03/21 02:07:28;;;;;;;37.60;23.17;;;9.90;99.90;;;;;;4965410;28;20053;-80
2023/03/21 02:10:08;;;;;;;27.75;20.30;;;9.90;99.90;;;;;;4960673;28;22023;-78
2023/03/21 02:12:36;;;;;;;25.83;19.15;;;9.90;99.90;;;;;;4973092;28;20065;-77
2023/03/21 02:15:06;;;;;;;35.03;22.02;;;9.90;99.90;;;;;;4973371;28;20041;-79
2023/03/21 02:18:00;;;;;;;34.47;23.98;;;9.90;99.90;;;;;;4980755;28;20046;-80
2023/03/21 02:21:20;;;;;;;31.13;23.30;;;9.90;99.90;;;;;;4955446;28;20045;-77
2023/03/21 02:24:08;;;;;;;36.17;24.30;;;9.90;99.90;;;;;;4937597;28;20041;-80
2023/03/21 02:26:50;;;;;;;28.05;20.65;;;9.80;99.90;;;;;;4970767;28;21777;-81
2023/03/21 02:29:41;;;;;;;38.67;24.67;;;9.80;99.90;;;;;;4964101;28;20054;-79
2023/03/21 02:32:36;;;;;;;30.70;22.70;;;9.90;99.90;;;;;;4971552;28;20061;-79
2023/03/21 02:35:27;;;;;;;28.45;22.50;;;9.90;99.90;;;;;;4980420;28;20038;-77
2023/03/21 02:38:11;;;;;;;40.25;27.02;;;9.90;99.90;;;;;;4963091;28;20053;-79
2023/03/21 02:40:58;;;;;;;30.98;22.08;;;9.90;99.90;;;;;;4980701;28;20045;-77
2023/03/21 02:43:40;;;;;;;28.95;21.50;;;9.90;99.90;;;;;;4971884;28;20436;-77
2023/03/21 02:46:25;;;;;;;30.70;23.88;;;9.90;99.90;;;;;;4988309;28;20034;-78
2023/03/21 02:49:06;;;;;;;29.27;22.55;;;9.90;99.90;;;;;;4953802;28;20576;-78
2023/03/21 02:51:34;;;;;;;32.58;23.90;;;9.90;99.90;;;;;;4991198;28;20037;-76
2023/03/21 02:54:06;;;;;;;31.65;22.27;;;9.90;99.90;;;;;;4980422;28;20049;-77
2023/03/21 02:56:36;;;;;;;29.50;22.05;;;9.90;99.90;;;;;;4960808;28;20481;-76
2023/03/21 02:59:05;;;;;;;30.52;24.17;;;9.90;99.90;;;;;;4965699;28;20052;-78
2023/03/21 03:01:33;;;;;;;29.45;22.45;;;9.90;99.90;;;;;;4968897;28;20037;-78
2023/03/21 03:04:00;;;;;;;32.53;25.50;;;9.90;99.90;;;;;;4969749;28;20053;-77
2023/03/21 03:06:46;;;;;;;28.83;21.70;;;9.90;99.90;;;;;;4987479;28;20048;-78
2023/03/21 03:09:20;;;;;;;;;;;9.90;99.90;;;;;;4968993;28;20042;-79
2023/03/21 03:11:54;;;;;;;35.10;25.35;;;9.90;99.90;;;;;;4996496;28;19925;-77
2023/03/21 03:14:44;;;;;;;27.48;22.58;;;9.90;99.90;;;;;;4978558;28;20034;-76
2023/03/21 03:17:16;;;;;;;31.60;23.27;;;9.90;99.90;;;;;;4971404;28;20030;-77
2023/03/21 03:20:17;;;;;;;36.70;25.92;;;9.90;99.90;;;;;;4980212;28;20492;-79
2023/03/21 03:23:11;;;;;;;31.90;23.58;;;9.90;99.90;;;;;;4985880;28;20057;-77
2023/03/21 03:25:52;;;;;;;32.33;22.95;;;9.90;99.90;;;;;;4971497;28;20061;-78
2023/03/21 03:28:25;;;;;;;27.88;20.85;;;9.90;99.90;;;;;;4979613;28;20528;-78
2023/03/21 03:30:54;;;;;;;45.08;32.00;;;9.90;99.90;;;;;;4972476;28;20057;-76
2023/03/21 03:33:25;;;;;;;35.20;25.75;;;9.90;99.90;;;;;;4954380;28;20041;-78
2023/03/21 03:35:54;;;;;;;32.38;24.30;;;9.90;99.90;;;;;;4986418;28;21639;-78
2023/03/21 03:38:22;;;;;;;40.20;28.83;;;9.90;99.90;;;;;;4970674;28;20046;-80
2023/03/21 03:40:57;;;;;;;32.65;23.80;;;9.90;99.90;;;;;;4961896;28;20406;-77
2023/03/21 03:43:45;;;;;;;27.58;22.20;;;9.90;99.90;;;;;;4955228;28;20052;-76
2023/03/21 03:46:18;;;;;;;27.23;21.88;;;9.90;99.90;;;;;;4982075;28;20046;-79
2023/03/21 03:48:54;;;;;;;34.05;24.20;;;9.90;99.90;;;;;;4960892;28;20049;-79
2023/03/21 03:51:39;;;;;;;27.80;20.45;;;9.90;99.90;;;;;;4965439;28;20054;-78
2023/03/21 03:54:44;;;;;;;39.90;25.02;;;9.80;99.90;;;;;;4972319;28;20604;-77
2023/03/21 03:57:12;;;;;;;29.45;21.02;;;9.80;99.90;;;;;;4970544;28;20056;-76
2023/03/21 03:59:41;;;;;;;28.40;20.15;;;9.80;99.90;;;;;;4961416;28;20053;-77
2023/03/21 04:02:30;;;;;;;28.40;18.33;;;9.80;99.90;;;;;;4976000;28;20050;-76
2023/03/21 04:05:00;;;;;;;25.65;16.77;;;9.80;99.90;;;;;;4963936;28;20041;-78
2023/03/21 04:07:26;;;;;;;28.38;18.27;;;9.80;99.90;;;;;;4975244;28;20045;-77
2023/03/21 04:09:56;;;;;;;27.23;18.20;;;9.80;99.90;;;;;;4945165;28;20046;-79
2023/03/21 04:12:23;;;;;;;25.75;16.80;;;9.80;99.90;;;;;;4969575;28;20046;-76
2023/03/21 04:15:13;;;;;;;22.48;15.07;;;9.80;99.90;;;;;;4980450;28;20045;-76
2023/03/21 04:17:45;;;;;;;26.77;16.85;;;9.80;99.90;;;;;;4968865;28;20448;-79
2023/03/21 04:20:12;;;;;;;27.60;16.77;;;9.80;99.90;;;;;;4972917;28;20045;-76
2023/03/21 04:22:39;;;;;;;22.92;16.10;;;9.80;99.90;;;;;;4983785;28;20057;-77
2023/03/21 04:25:07;;;;;;;21.75;15.88;;;9.80;99.90;;;;;;4958688;28;20697;-77
2023/03/21 04:27:35;;;;;;;31.08;16.80;;;9.80;99.90;;;;;;4954169;28;20033;-79
2023/03/21 04:30:33;;;;;;;19.58;13.80;;;9.80;99.90;;;;;;4943873;28;20046;-77
2023/03/21 04:33:10;;;;;;;20.40;13.98;;;9.80;99.90;;;;;;4968233;28;22492;-77
2023/03/21 04:35:37;;;;;;;15.73;10.77;;;9.80;99.90;;;;;;4972254;28;20909;-77
2023/03/21 04:38:06;;;;;;;21.05;13.35;;;9.80;99.90;;;;;;4979978;28;20123;-77
2023/03/21 04:40:32;;;;;;;20.95;12.32;;;9.80;99.90;;;;;;4956806;28;20567;-78
2023/03/21 04:43:00;;;;;;;22.90;14.40;;;9.80;99.90;;;;;;4953235;28;20041;-80
2023/03/21 04:45:27;;;;;;;14.25;10.68;;;9.80;99.90;;;;;;4969140;28;20041;-76
2023/03/21 04:47:53;;;;;;;19.55;11.70;;;9.80;99.90;;;;;;4984415;28;20049;-78
2023/03/21 04:50:20;;;;;;;17.75;11.10;;;9.80;99.90;;;;;;4960642;28;20057;-77
2023/03/21 04:52:46;;;;;;;16.95;10.20;;;9.70;99.90;;;;;;4986619;28;20049;-77
2023/03/21 04:55:13;;;;;;;15.70;9.77;;;9.80;99.90;;;;;;4994509;28;20413;-78
2023/03/21 04:57:39;;;;;;;14.40;10.52;;;9.80;99.90;;;;;;4979056;28;20611;-79
2023/03/21 05:00:10;;;;;;;17.23;11.20;;;9.80;99.90;;;;;;4945502;28;20046;-78
2023/03/21 05:02:38;;;;;;;19.92;11.18;;;9.80;99.90;;;;;;4984958;28;20046;-79
2023/03/21 05:05:10;;;;;;;16.67;10.68;;;9.80;99.90;;;;;;4952949;28;20052;-78
2023/03/21 05:07:40;;;;;;;20.95;10.98;;;9.80;99.90;;;;;;4952843;28;20037;-76
2023/03/21 05:10:10;;;;;;;21.92;12.20;;;9.80;99.90;;;;;;4949297;28;20053;-80
2023/03/21 05:12:38;;;;;;;17.48;11.65;;;9.80;99.90;;;;;;4980619;28;20038;-79
2023/03/21 05:15:06;;;;;;;16.45;11.10;;;9.70;99.90;;;;;;4976361;28;20050;-77
2023/03/21 05:17:32;;;;;;;19.05;11.82;;;9.70;99.90;;;;;;4968131;28;20045;-77
2023/03/21 05:19:59;;;;;;;17.98;10.75;;;9.70;99.90;;;;;;4977137;28;20042;-81
2023/03/21 05:22:27;;;;;;;11.05;8.07;;;9.70;99.90;;;;;;4966625;28;20034;-77
2023/03/21 05:24:54;;;;;;;10.77;7.20;;;9.70;99.90;;;;;;4967936;28;20044;-78
2023/03/21 05:27:52;;;;;;;13.85;8.35;;;9.70;99.90;;;;;;4960221;28;20052;-81
2023/03/21 05:30:22;;;;;;;17.38;10.32;;;9.70;99.90;;;;;;4969215;28;20038;-77
2023/03/21 05:32:51;;;;;;;19.15;11.55;;;9.70;99.90;;;;;;4975897;28;20037;-81
2023/03/21 05:35:19;;;;;;;14.73;8.63;;;9.70;99.90;;;;;;4953113;28;20249;-77
2023/03/21 05:37:46;;;;;;;19.67;10.18;;;9.70;99.90;;;;;;4968185;28;20054;-78
2023/03/21 05:40:13;;;;;;;19.52;11.45;;;9.70;99.90;;;;;;4945628;28;20030;-79
2023/03/21 05:42:44;;;;;;;17.73;11.57;;;9.70;99.90;;;;;;4968779;28;20050;-84
2023/03/21 05:45:16;;;;;;;17.05;10.70;;;9.70;99.90;;;;;;4985903;28;20642;-78
2023/03/21 05:47:42;;;;;;;18.42;11.88;;;9.60;99.90;;;;;;4961803;28;20041;-77
2023/03/21 05:50:12;;;;;;;18.88;9.90;;;9.60;99.90;;;;;;4954878;28;20046;-81
2023/03/21 05:52:41;;;;;;;14.90;9.88;;;9.60;99.90;;;;;;4969000;28;20050;-81
2023/03/21 05:55:11;;;;;;;16.48;10.60;;;9.60;99.90;;;;;;4968980;28;20041;-80
2023/03/21 05:57:39;;;;;;;16.70;9.02;;;9.60;99.90;;;;;;4983270;28;20046;-80
2023/03/21 06:00:09;;;;;;;18.83;10.07;;;9.60;99.90;;;;;;4958936;28;20034;-77
2023/03/21 06:02:42;;;;;;;15.88;9.15;;;9.60;99.90;;;;;;4972884;28;20050;-77
2023/03/21 06:05:23;;;;;;;14.53;9.40;;;9.70;99.90;;;;;;4977028;28;20068;-80
2023/03/21 06:07:52;;;;;;;13.55;7.82;;;9.70;99.90;;;;;;4974731;28;20056;-77
2023/03/21 06:10:19;;;;;;;13.60;8.50;;;9.70;99.90;;;;;;4959156;28;20042;-76
2023/03/21 06:12:48;;;;;;;16.30;8.60;;;9.70;99.90;;;;;;4967482;28;20053;-79
2023/03/21 06:15:28;;;;;;;16.67;9.15;;;9.70;99.90;;;;;;4984771;28;20038;-77
2023/03/21 06:18:04;;;;;;;18.42;10.82;;;9.70;99.90;;;;;;4966058;28;20056;-78
2023/03/21 06:20:31;;;;;;;17.40;9.95;;;9.80;99.90;;;;;;4959242;28;20046;-77
2023/03/21 06:23:06;;;;;;;19.27;11.73;;;9.80;99.90;;;;;;4976986;28;20061;-77
2023/03/21 06:25:33;;;;;;;13.55;8.27;;;9.80;99.90;;;;;;4974699;28;20037;-77
2023/03/21 06:27:59;;;;;;;18.20;10.77;;;9.80;99.90;;;;;;4949398;28;21108;-78
2023/03/21 06:30:26;;;;;;;14.48;9.73;;;9.80;99.90;;;;;;4941802;28;20513;-77
2023/03/21 06:33:03;;;;;;;19.05;10.43;;;9.80;99.90;;;;;;4967603;28;20057;-78
2023/03/21 06:35:29;;;;;;;17.45;11.13;;;9.80;99.90;;;;;;4982340;28;20046;-77
2023/03/21 06:37:57;;;;;;;19.88;11.02;;;9.80;99.90;;;;;;4970700;28;20572;-77
2023/03/21 06:40:25;;;;;;;19.15;9.40;;;9.80;99.90;;;;;;4986002;28;20057;-78
2023/03/21 06:42:52;;;;;;;14.65;8.85;;;9.80;99.90;;;;;;4974621;28;20559;-76
2023/03/21 06:45:19;;;;;;;16.05;8.32;;;9.80;99.90;;;;;;4967034;28;20046;-76
2023/03/21 06:47:45;;;;;;;15.60;9.23;;;9.90;99.90;;;;;;4982155;28;20038;-77
2023/03/21 06:50:24;;;;;;;16.70;8.23;;;9.90;99.90;;;;;;4944110;28;20409;-77
2023/03/21 06:52:50;;;;;;;13.73;9.30;;;9.90;99.90;;;;;;4965885;28;20520;-82
2023/03/21 06:55:18;;;;;;;14.95;8.88;;;10.00;99.90;;;;;;4970199;28;20061;-78
2023/03/21 06:57:45;;;;;;;15.95;9.77;;;10.00;99.90;;;;;;4995269;28;20038;-80
2023/03/21 07:00:46;;;;;;;14.05;8.32;;;10.00;99.90;;;;;;4953566;28;20088;-80
2023/03/21 07:03:18;;;;;;;13.98;7.75;;;10.10;99.90;;;;;;4968201;28;20042;-77
2023/03/21 07:06:10;;;;;;;14.75;8.20;;;10.10;99.90;;;;;;4985159;28;20893;-78
2023/03/21 07:08:39;;;;;;;12.05;7.65;;;10.20;99.90;;;;;;4967999;28;20034;-77
2023/03/21 07:11:06;;;;;;;15.32;9.05;;;10.20;99.90;;;;;;4960685;28;20053;-80
2023/03/21 07:13:33;;;;;;;15.15;8.05;;;10.20;99.90;;;;;;4978349;28;20048;-76
2023/03/21 07:16:03;;;;;;;17.85;9.57;;;10.20;99.90;;;;;;4980076;28;20065;-79
2023/03/21 07:18:30;;;;;;;12.68;8.25;;;10.30;99.90;;;;;;4974864;28;20050;-80
2023/03/21 07:20:57;;;;;;;14.55;7.80;;;10.40;99.90;;;;;;4961537;28;20042;-77
2023/03/21 07:23:24;;;;;;;18.45;9.07;;;10.40;99.90;;;;;;4953018;28;20037;-78
2023/03/21 07:25:51;;;;;;;14.38;8.88;;;10.50;99.90;;;;;;4970426;28;20992;-75
2023/03/21 07:28:18;;;;;;;22.08;11.23;;;10.50;99.90;;;;;;4983796;28;20041;-80
2023/03/21 07:30:50;;;;;;;18.95;11.15;;;10.50;99.90;;;;;;4965710;28;20046;-79
2023/03/21 07:33:17;;;;;;;17.95;10.90;;;10.50;99.90;;;;;;4995933;28;20053;-80
2023/03/21 07:35:43;;;;;;;16.63;10.13;;;10.60;99.90;;;;;;4975011;28;20042;-79
2023/03/21 07:38:10;;;;;;;14.55;9.57;;;10.60;99.90;;;;;;4984379;28;20049;-75
2023/03/21 07:40:36;;;;;;;18.02;9.60;;;10.60;99.90;;;;;;4978980;28;20042;-76
2023/03/21 07:43:03;;;;;;;10.98;8.02;;;10.70;99.90;;;;;;4971068;28;20053;-77
2023/03/21 07:45:33;;;;;;;12.45;8.82;;;10.70;99.90;;;;;;4969878;28;20124;-81
2023/03/21 07:48:00;;;;;;;15.57;8.80;;;10.80;99.90;;;;;;4971883;28;20634;-83
2023/03/21 07:50:26;;;;;;;12.20;7.88;;;10.80;99.90;;;;;;4953630;28;20030;-79
2023/03/21 07:52:53;;;;;;;11.35;7.72;;;10.80;99.90;;;;;;4979852;28;20536;-81
2023/03/21 07:55:19;;;;;;;15.32;8.75;;;10.80;99.90;;;;;;4969416;28;20053;-78
2023/03/21 07:57:48;;;;;;;20.02;9.10;;;10.80;99.90;;;;;;4970408;28;20620;-83
2023/03/21 08:00:21;;;;;;;21.20;10.63;;;10.70;99.90;;;;;;4964552;28;20042;-83
2023/03/21 08:02:53;;;;;;;16.85;9.32;;;10.70;99.90;;;;;;4969821;28;20042;-80
2023/03/21 08:05:24;;;;;;;12.18;7.85;;;10.70;99.90;;;;;;4976954;28;20425;-83
2023/03/21 08:07:51;;;;;;;14.23;7.78;;;10.60;99.90;;;;;;4981024;28;20505;-81
2023/03/21 08:10:17;;;;;;;14.95;10.27;;;10.60;99.90;;;;;;4986674;28;20053;-81
2023/03/21 08:12:44;;;;;;;17.90;8.27;;;10.60;99.90;;;;;;4971117;28;20056;-81
2023/03/21 08:15:12;;;;;;;12.90;8.25;;;10.60;99.90;;;;;;4969986;28;20081;-80
2023/03/21 08:17:39;;;;;;;11.93;7.30;;;10.60;99.90;;;;;;4972100;28;20038;-82
2023/03/21 08:20:09;;;;;;;15.48;8.50;;;10.60;99.90;;;;;;4960950;28;20505;-81
2023/03/21 08:22:36;;;;;;;18.95;8.25;;;10.60;99.90;;;;;;4983402;28;20053;-79
2023/03/21 08:25:07;;;;;;;15.25;7.63;;;10.60;99.90;;;;;;4977911;28;20053;-78
2023/03/21 08:27:34;;;;;;;17.63;8.73;;;10.70;99.90;;;;;;4978830;28;20053;-80
2023/03/21 08:30:00;;;;;;;14.43;8.13;;;10.70;99.90;;;;;;4957867;28;20050;-79
2023/03/21 08:32:31;;;;;;;16.20;7.80;;;10.70;99.90;;;;;;4952386;28;20053;-79
2023/03/21 08:35:00;;;;;;;18.30;8.30;;;10.70;99.90;;;;;;4968081;28;20041;-81
2023/03/21 08:37:27;;;;;;;18.10;8.63;;;10.70;99.90;;;;;;4967985;28;20041;-78
2023/03/21 08:39:53;;;;;;;13.40;7.70;;;10.70;99.90;;;;;;4959345;28;20042;-81
2023/03/21 08:42:21;;;;;;;13.60;7.60;;;10.70;99.90;;;;;;4990716;28;20056;-81
2023/03/21 08:44:49;;;;;;;18.55;8.48;;;10.80;99.90;;;;;;4979005;28;20057;-81
2023/03/21 08:47:15;;;;;;;17.08;8.73;;;10.80;99.90;;;;;;4971677;28;20045;-81
2023/03/21 08:49:44;;;;;;;17.23;6.47;;;10.80;99.90;;;;;;4959184;28;20057;-78
2023/03/21 08:52:11;;;;;;;11.70;6.43;;;10.90;99.90;;;;;;4966755;28;20084;-79
2023/03/21 08:54:37;;;;;;;16.25;7.68;;;10.90;99.90;;;;;;4966559;28;20500;-81
2023/03/21 08:57:03;;;;;;;16.02;6.95;;;11.00;99.90;;;;;;4967089;28;20049;-79
2023/03/21 08:59:30;;;;;;;16.83;9.02;;;11.00;99.90;;;;;;4964976;28;20041;-79
2023/03/21 09:01:56;;;;;;;13.80;8.43;;;11.00;99.90;;;;;;4974680;28;20037;-80
2023/03/21 09:04:24;;;;;;;13.55;6.65;;;11.10;99.90;;;;;;4972994;28;20045;-78
2023/03/21 09:06:51;;;;;;;13.52;7.00;;;11.10;99.90;;;;;;4968449;28;20758;-81
2023/03/21 09:09:17;;;;;;;11.85;6.78;;;11.10;99.90;;;;;;4960839;28;20910;-79
2023/03/21 09:11:44;;;;;;;14.13;7.20;;;11.20;99.90;;;;;;4962801;28;20050;-79
2023/03/21 09:14:10;;;;;;;10.48;6.00;;;11.20;99.90;;;;;;4966330;28;20527;-79
2023/03/21 09:16:36;;;;;;;11.27;6.07;;;11.30;99.90;;;;;;4971083;28;20029;-80
2023/03/21 09:19:03;;;;;;;14.20;7.05;;;11.40;99.90;;;;;;4972630;28;20056;-82
2023/03/21 09:21:30;;;;;;;11.95;6.70;;;11.40;99.90;;;;;;4970625;28;20041;-78
2023/03/21 09:23:58;;;;;;;12.32;6.70;;;11.40;99.90;;;;;;4968974;28;20401;-80
2023/03/21 09:26:26;;;;;;;12.13;6.05;;;11.50;99.90;;;;;;4967827;28;20033;-79
2023/03/21 09:28:55;;;;;;;12.32;6.00;;;11.50;99.90;;;;;;4964662;28;21652;-81
2023/03/21 09:31:22;;;;;;;15.02;7.32;;;11.60;99.90;;;;;;4960841;28;20042;-81
2023/03/21 09:33:50;;;;;;;14.82;7.78;;;11.70;99.90;;;;;;4983797;28;20068;-79
2023/03/21 09:36:20;;;;;;;11.63;5.95;;;11.70;99.90;;;;;;4977633;28;20383;-80
2023/03/21 09:38:48;;;;;;;10.05;6.60;;;11.70;99.90;;;;;;4976583;28;20069;-81
2023/03/21 09:41:40;;;;;;;18.08;8.40;;;11.80;99.90;;;;;;4961460;28;20041;-80
2023/03/21 09:44:37;;;;;;;18.85;9.25;;;11.80;99.90;;;;;;4982167;28;20048;-79
2023/03/21 09:47:23;;;;;;;15.32;8.13;;;11.90;99.90;;;;;;4966344;28;20045;-78
2023/03/21 09:49:58;;;;;;;11.52;6.25;;;11.80;99.90;;;;;;4960834;28;20065;-79
2023/03/21 09:53:15;;;;;;;16.65;7.60;;;11.80;99.90;;;;;;4956269;28;20057;-79
2023/03/21 09:55:43;;;;;;;13.30;6.80;;;11.80;99.90;;;;;;4975696;28;20058;-80
2023/03/21 09:58:27;;;;;;;11.25;5.88;;;11.80;99.90;;;;;;4955711;28;20042;-79
2023/03/21 10:01:21;;;;;;;13.15;6.95;;;11.80;99.90;;;;;;4971652;28;20053;-80
2023/03/21 10:03:52;;;;;;;17.92;8.48;;;11.90;99.90;;;;;;4966975;28;20041;-78
2023/03/21 10:06:27;;;;;;;12.90;6.45;;;11.80;99.90;;;;;;4968358;28;20413;-80
2023/03/21 10:08:59;;;;;;;12.25;6.80;;;11.80;99.90;;;;;;4967592;28;20053;-80
2023/03/21 10:11:30;;;;;;;16.25;7.00;;;11.80;99.90;;;;;;4971647;28;20034;-80
2023/03/21 10:14:07;;;;;;;10.95;7.03;;;11.80;99.90;;;;;;4977911;28;20069;-79
2023/03/21 10:16:43;;;;;;;11.75;6.15;;;11.90;99.90;;;;;;4985725;28;20057;-77
2023/03/21 10:19:16;;;;;;;11.93;7.13;;;12.00;99.90;;;;;;4977105;28;20058;-79
2023/03/21 10:21:45;;;;;;;;;;;12.10;99.90;;;;;;4963833;28;20074;-79
2023/03/21 10:24:15;;;;;;;13.50;7.43;;;12.20;99.90;;;;;;4982652;28;19917;-78
2023/03/21 10:26:42;;;;;;;12.00;6.60;;;12.30;99.90;;;;;;4968507;28;20049;-79
2023/03/21 10:29:13;;;;;;;14.38;6.68;;;12.30;99.90;;;;;;4972323;28;20038;-77
2023/03/21 10:31:41;;;;;;;11.82;5.93;;;12.50;99.90;;;;;;4957260;28;21285;-77
2023/03/21 10:34:26;;;;;;;11.63;6.40;;;12.60;99.90;;;;;;4975076;28;20045;-78
2023/03/21 10:36:52;;;;;;;11.40;6.35;;;12.80;99.90;;;;;;4984876;28;20038;-79
2023/03/21 10:39:33;;;;;;;11.88;6.72;;;12.90;99.90;;;;;;4967081;28;20068;-79
2023/03/21 10:42:00;;;;;;;12.20;6.13;;;13.00;99.90;;;;;;4970844;28;21708;-79
2023/03/21 10:44:31;;;;;;;10.98;6.65;;;12.90;99.90;;;;;;4971214;28;20050;-79
2023/03/21 10:47:07;;;;;;;10.90;6.03;;;13.00;99.90;;;;;;4980286;28;20034;-79
2023/03/21 10:49:35;;;;;;;14.32;6.97;;;13.00;99.90;;;;;;4954357;28;20053;-79
2023/03/21 10:52:06;;;;;;;9.85;6.13;;;13.10;99.90;;;;;;4986696;28;20049;-79
2023/03/21 10:54:34;;;;;;;12.70;6.68;;;13.10;99.90;;;;;;4969806;28;21606;-79
2023/03/21 10:57:10;;;;;;;8.57;5.10;;;13.20;99.90;;;;;;4970430;28;20460;-79
2023/03/21 10:59:46;;;;;;;9.90;5.85;;;13.20;99.90;;;;;;4976091;28;20056;-79
2023/03/21 11:02:33;;;;;;;11.38;5.72;;;13.20;99.90;;;;;;4987639;28;20053;-79
2023/03/21 11:05:40;;;;;;;12.80;5.80;;;13.20;99.90;;;;;;4979245;28;20111;-80
2023/03/21 11:08:17;;;;;;;8.68;4.75;;;13.40;99.90;;;;;;4965161;28;20756;-80
2023/03/21 11:10:58;;;;;;;10.70;5.82;;;13.60;99.90;;;;;;4975113;28;20046;-80
2023/03/21 11:13:32;;;;;;;13.23;5.32;;;13.80;99.90;;;;;;4968954;28;20050;-80
2023/03/21 11:16:21;;;;;;;11.93;5.65;;;13.90;99.90;;;;;;4972166;28;20050;-80
2023/03/21 11:18:55;;;;;;;10.52;5.95;;;14.00;99.90;;;;;;4967791;28;20030;-79
2023/03/21 11:21:26;;;;;;;6.78;4.22;;;14.10;99.90;;;;;;4970338;28;20069;-80
2023/03/21 11:23:55;;;;;;;9.82;4.40;;;14.20;99.90;;;;;;4981792;28;20054;-79
2023/03/21 11:26:31;;;;;;;9.60;4.70;;;14.20;99.90;;;;;;4989481;28;20707;-80
2023/03/21 11:28:57;;;;;;;9.80;4.97;;;14.20;99.90;;;;;;4967703;28;20072;-80
2023/03/21 11:31:38;;;;;;;9.05;4.95;;;14.10;99.90;;;;;;4964836;28;20038;-81
2023/03/21 11:34:07;;;;;;;9.52;4.25;;;14.10;99.90;;;;;;4968895;28;20061;-80
2023/03/21 11:36:39;;;;;;;9.40;3.65;;;14.20;99.90;;;;;;4970064;28;20045;-80
2023/03/21 11:39:23;;;;;;;11.38;5.05;;;14.20;99.90;;;;;;4967891;28;20497;-81
2023/03/21 11:41:51;;;;;;;9.07;5.18;;;14.20;99.90;;;;;;4975893;28;20084;-81
2023/03/21 11:44:48;;;;;;;11.00;5.70;;;14.20;99.90;;;;;;4977931;28;20050;-81
2023/03/21 11:47:15;;;;;;;8.57;4.50;;;14.10;99.90;;;;;;4950378;28;20046;-82
2023/03/21 11:49:41;;;;;;;9.32;4.25;;;14.10;99.90;;;;;;4959609;28;20049;-81
2023/03/21 11:52:28;;;;;;;9.85;4.60;;;14.00;99.90;;;;;;4970890;28;20061;-82
2023/03/21 11:55:24;;;;;;;10.93;3.40;;;14.10;99.90;;;;;;4970651;28;20564;-81
2023/03/21 11:58:17;;;;;;;8.55;4.35;;;14.10;99.90;;;;;;4996185;28;20046;-81
2023/03/21 12:01:05;;;;;;;7.63;3.15;;;14.20;99.90;;;;;;4968313;28;20082;-81
2023/03/21 12:03:51;;;;;;;6.55;3.85;;;14.30;99.90;;;;;;4967174;28;20402;-82
2023/03/21 12:06:44;;;;;;;7.28;3.92;;;14.40;99.90;;;;;;4953150;28;20389;-82
2023/03/21 12:09:36;;;;;;;8.25;3.38;;;14.40;99.90;;;;;;4966001;28;20053;-80
2023/03/21 12:12:12;;;;;;;7.15;3.45;;;14.40;99.90;;;;;;4952528;28;23268;-82
2023/03/21 12:14:44;;;;;;;8.88;4.10;;;14.40;99.90;;;;;;4976397;28;20042;-82
2023/03/21 12:17:36;;;;;;;8.48;3.92;;;14.40;99.90;;;;;;4980253;28;20500;-79
2023/03/21 12:20:38;;;;;;;9.00;4.03;;;14.40;99.90;;;;;;4965122;28;20054;-80
2023/03/21 12:23:19;;;;;;;10.98;4.35;;;14.40;99.90;;;;;;4967738;28;20052;-81
2023/03/21 12:26:09;;;;;;;5.95;3.10;;;14.50;99.90;;;;;;4966683;28;20045;-81
2023/03/21 12:28:48;;;;;;;5.35;2.90;;;14.50;99.90;;;;;;4968655;28;20030;-80
2023/03/21 12:31:36;;;;;;;8.13;3.55;;;14.60;99.90;;;;;;4960443;28;20041;-81
2023/03/21 12:34:22;;;;;;;9.10;4.60;;;14.60;99.90;;;;;;4993295;28;20038;-81
2023/03/21 12:37:08;;;;;;;13.75;5.43;;;14.50;99.90;;;;;;4959296;28;20477;-81
2023/03/21 12:39:38;;;;;;;8.63;4.07;;;14.40;99.90;;;;;;4975168;28;20058;-84
2023/03/21 12:42:10;;;;;;;8.50;4.45;;;14.30;99.90;;;;;;4982532;28;20505;-79
2023/03/21 12:44:40;;;;;;;8.20;3.22;;;14.30;99.90;;;;;;4970526;28;20056;-82
2023/03/21 12:47:16;;;;;;;6.63;3.00;;;14.20;99.90;;;;;;4967685;28;20050;-78
2023/03/21 12:49:45;;;;;;;5.25;2.72;;;14.20;99.90;;;;;;4945041;28;20112;-79
2023/03/21 12:52:25;;;;;;;8.50;3.92;;;14.10;99.90;;;;;;4978010;28;21033;-79
2023/03/21 12:54:57;;;;;;;7.68;3.28;;;14.00;99.90;;;;;;4973993;28;20404;-79
2023/03/21 12:57:29;;;;;;;5.45;1.95;;;14.00;99.90;;;;;;4970763;28;20374;-80
2023/03/21 12:59:55;;;;;;;;;;;13.90;99.90;;;;;;4964002;28;20385;-82
2023/03/21 13:02:26;;;;;;;7.70;4.30;;;13.90;99.90;;;;;;4973905;28;19913;-82
2023/03/21 13:05:19;;;;;;;7.90;3.60;;;13.90;99.90;;;;;;4977519;28;20478;-82
2023/03/21 13:07:52;;;;;;;7.53;3.20;;;14.00;99.90;;;;;;4995063;28;20428;-82
2023/03/21 13:10:20;;;;;;;8.50;3.25;;;14.10;99.90;;;;;;4970045;28;20049;-80